createdAt,value
2023-04-12T00:02:15.518Z,22.90
2023-04-12T00:04:51.108Z,23.20
2023-04-12T00:07:25.329Z,23.60
2023-04-12T00:10:01.305Z,24.00
2023-04-12T00:12:35.010Z,24.50
2023-04-12T00:15:24.678Z,25.30
2023-04-12T00:17:58.101Z,25.70
2023-04-12T00:20:35.221Z,26.70
2023-04-12T00:23:08.733Z,27.30
2023-04-12T00:25:44.151Z,27.70
2023-04-12T00:28:17.839Z,27.90
2023-04-12T00:30:52.291Z,28.20
2023-04-12T00:33:26.517Z,28.70
2023-04-12T00:36:00.560Z,28.90
2023-04-12T00:38:39.803Z,29.30
2023-04-12T00:41:16.715Z,29.60
2023-04-12T00:43:53.233Z,30.00
2023-04-12T00:46:28.846Z,29.20
2023-04-12T00:49:22.168Z,29.40
2023-04-12T00:52:05.941Z,29.20
2023-04-12T00:54:57.478Z,29.10
2023-04-12T00:57:49.273Z,29.10
2023-04-12T01:00:23.785Z,29.90
2023-04-12T01:03:04.427Z,30.10
2023-04-12T01:05:48.224Z,30.10
2023-04-12T01:08:29.175Z,29.50
2023-04-12T01:11:13.139Z,29.70
2023-04-12T01:13:56.228Z,29.70
2023-04-12T01:16:42.011Z,30.30
2023-04-12T01:19:33.593Z,30.60
2023-04-12T01:22:20.119Z,31.00
2023-04-12T01:25:08.184Z,30.70
2023-04-12T01:27:46.951Z,30.60
2023-04-12T01:30:23.123Z,30.00
2023-04-12T01:32:57.292Z,30.10
2023-04-12T01:35:37.426Z,30.10
2023-04-12T01:38:12.243Z,29.80
2023-04-12T01:40:46.167Z,30.00
2023-04-12T01:43:21.429Z,30.40
2023-04-12T01:45:55.485Z,30.40
2023-04-12T01:48:28.776Z,30.50
2023-04-12T01:51:11.433Z,30.70
2023-04-12T01:53:59.068Z,31.10
2023-04-12T01:56:40.403Z,30.90
2023-04-12T01:59:18.194Z,30.40
2023-04-12T02:01:54.102Z,30.30
2023-04-12T02:04:29.446Z,30.20
2023-04-12T02:07:06.170Z,30.60
2023-04-12T02:09:57.103Z,30.20
2023-04-12T02:12:30.774Z,30.20
2023-04-12T02:15:09.847Z,30.50
2023-04-12T02:17:44.332Z,30.30
2023-04-12T02:20:19.630Z,29.90
2023-04-12T02:22:54.159Z,30.00
2023-04-12T02:25:30.624Z,30.20
2023-04-12T02:28:19.082Z,30.20
2023-04-12T02:30:59.656Z,30.40
2023-04-12T02:33:45.809Z,30.10
2023-04-12T02:36:20.219Z,30.10
2023-04-12T02:38:55.515Z,29.90
2023-04-12T02:41:30.555Z,29.90
2023-04-12T02:44:09.012Z,30.70
2023-04-12T02:46:48.320Z,31.40
2023-04-12T02:49:24.881Z,31.90
2023-04-12T02:51:59.432Z,32.30
2023-04-12T02:54:44.508Z,32.20
2023-04-12T02:57:23.083Z,31.80
2023-04-12T02:59:57.069Z,31.70
2023-04-12T03:02:54.940Z,31.80
2023-04-12T03:05:35.074Z,32.20
2023-04-12T03:08:09.371Z,32.10
2023-04-12T03:10:48.507Z,32.10
2023-04-12T03:13:21.931Z,31.90
2023-04-12T03:16:24.856Z,32.40
2023-04-12T03:19:11.859Z,32.30
2023-04-12T03:21:46.067Z,33.00
2023-04-12T03:24:20.287Z,33.50
2023-04-12T03:26:55.353Z,33.20
2023-04-12T03:29:32.818Z,33.40
2023-04-12T03:32:07.844Z,33.70
2023-04-12T03:34:45.120Z,33.90
2023-04-12T03:37:22.959Z,33.90
2023-04-12T03:40:11.948Z,33.60
2023-04-12T03:42:56.253Z,33.50
2023-04-12T03:45:31.121Z,33.30
2023-04-12T03:48:13.228Z,33.60
2023-04-12T03:50:56.105Z,33.80
2023-04-12T03:53:34.169Z,33.70
2023-04-12T03:56:11.882Z,33.40
2023-04-12T03:58:46.713Z,33.40
2023-04-12T04:01:30.691Z,33.00
2023-04-12T04:04:05.811Z,32.90
2023-04-12T04:06:42.594Z,32.70
2023-04-12T04:09:16.915Z,32.40
2023-04-12T04:11:51.842Z,32.00
2023-04-12T04:14:29.380Z,32.00
2023-04-12T04:17:06.336Z,32.00
2023-04-12T04:19:41.699Z,32.00
2023-04-12T04:22:17.224Z,31.90
2023-04-12T04:24:54.978Z,31.60
2023-04-12T04:27:35.996Z,31.60
2023-04-12T04:30:16.416Z,31.00
2023-04-12T04:32:54.253Z,30.70
2023-04-12T04:35:31.431Z,30.50
2023-04-12T04:38:27.973Z,31.10
2023-04-12T04:41:12.900Z,31.70
2023-04-12T04:43:57.852Z,31.70
2023-04-12T04:46:35.787Z,31.90
2023-04-12T04:49:11.316Z,31.40
2023-04-12T04:51:46.153Z,30.80
2023-04-12T04:54:22.019Z,31.10
2023-04-12T04:56:55.954Z,31.40
2023-04-12T04:59:33.358Z,31.70
2023-04-12T05:02:19.012Z,32.00
2023-04-12T05:04:56.137Z,31.90
2023-04-12T05:07:35.845Z,31.90
2023-04-12T05:10:15.561Z,32.20
2023-04-12T05:12:54.083Z,32.30
2023-04-12T05:15:32.005Z,32.20
2023-04-12T05:18:10.598Z,31.20
2023-04-12T05:20:48.173Z,31.10
2023-04-12T05:23:24.309Z,31.00
2023-04-12T05:26:01.624Z,30.80
2023-04-12T05:28:36.763Z,30.80
2023-04-12T05:31:11.835Z,30.80
2023-04-12T05:33:53.291Z,31.00
2023-04-12T05:36:32.909Z,31.00
2023-04-12T05:39:09.980Z,31.10
2023-04-12T05:42:02.632Z,30.70
2023-04-12T05:44:45.823Z,30.30
2023-04-12T05:47:22.411Z,30.30
2023-04-12T05:49:58.184Z,30.50
2023-04-12T05:52:32.384Z,30.90
2023-04-12T05:55:06.917Z,31.00
2023-04-12T05:57:49.153Z,30.60
2023-04-12T06:00:35.333Z,30.70
2023-04-12T06:03:11.056Z,30.80
2023-04-12T06:05:47.959Z,31.10
2023-04-12T06:08:37.062Z,31.20
2023-04-12T06:11:13.712Z,31.10
2023-04-12T06:13:54.927Z,30.70
2023-04-12T06:16:29.774Z,30.80
2023-04-12T06:19:03.429Z,30.80
2023-04-12T06:21:38.740Z,30.80
2023-04-12T06:24:16.656Z,31.00
2023-04-12T06:26:52.499Z,31.00
2023-04-12T06:29:36.489Z,31.00
2023-04-12T06:32:10.701Z,30.90
2023-04-12T06:34:45.573Z,30.70
2023-04-12T06:37:21.239Z,30.60
2023-04-12T06:39:55.381Z,30.60
2023-04-12T06:42:31.676Z,30.60
2023-04-12T06:45:07.807Z,30.70
2023-04-12T06:47:43.928Z,30.90
2023-04-12T06:50:17.883Z,31.10
2023-04-12T06:52:51.342Z,31.10
2023-04-12T06:55:25.446Z,31.20
2023-04-12T06:58:00.265Z,31.50
2023-04-12T07:00:36.682Z,31.40
2023-04-12T07:03:11.233Z,31.00
2023-04-12T07:05:45.874Z,30.70
2023-04-12T07:08:21.568Z,30.70
2023-04-12T07:11:03.983Z,30.90
2023-04-12T07:13:48.696Z,30.90
2023-04-12T07:16:24.326Z,30.90
2023-04-12T07:18:58.771Z,30.90
2023-04-12T07:21:36.482Z,30.50
2023-04-12T07:24:16.281Z,30.70
2023-04-12T07:26:52.581Z,30.80
2023-04-12T07:29:28.071Z,31.00
2023-04-12T07:32:04.502Z,31.20
2023-04-12T07:34:38.999Z,30.80
2023-04-12T07:37:25.380Z,30.80
2023-04-12T07:39:59.212Z,30.80
2023-04-12T07:42:32.717Z,31.00
2023-04-12T07:45:06.575Z,31.00
2023-04-12T07:47:44.405Z,31.10
2023-04-12T07:50:20.149Z,31.20
2023-04-12T07:52:55.097Z,31.20
2023-04-12T07:55:32.033Z,31.10
2023-04-12T07:58:06.461Z,31.10
2023-04-12T08:00:44.122Z,31.10
2023-04-12T08:03:35.310Z,31.00
2023-04-12T08:06:11.343Z,31.20
2023-04-12T08:08:46.147Z,31.30
2023-04-12T08:11:31.063Z,31.30
2023-04-12T08:14:05.488Z,31.30
2023-04-12T08:16:39.907Z,31.10
2023-04-12T08:19:15.677Z,31.00
2023-04-12T08:21:49.320Z,30.90
2023-04-12T08:24:23.360Z,30.60
2023-04-12T08:26:58.143Z,30.50
2023-04-12T08:29:33.831Z,30.50
2023-04-12T08:32:10.708Z,30.50
2023-04-12T08:34:47.222Z,30.60
2023-04-12T08:37:23.841Z,30.60
2023-04-12T08:39:58.002Z,30.80
2023-04-12T08:42:37.451Z,30.70
2023-04-12T08:45:13.488Z,30.60
2023-04-12T08:47:49.764Z,30.50
2023-04-12T08:50:36.140Z,30.00
2023-04-12T08:53:14.734Z,29.90
2023-04-12T08:55:51.520Z,29.80
2023-04-12T08:58:29.212Z,29.90
2023-04-12T09:01:15.925Z,29.80
2023-04-12T09:03:55.347Z,29.70
2023-04-12T09:06:33.201Z,29.70
2023-04-12T09:09:08.339Z,29.80
2023-04-12T09:11:42.209Z,29.80
2023-04-12T09:17:32.129Z,29.30
2023-04-12T09:20:06.830Z,29.10
2023-04-12T09:22:47.060Z,29.10
2023-04-12T09:25:21.248Z,29.20
2023-04-12T09:27:56.622Z,29.20
2023-04-12T09:30:30.266Z,29.10
2023-04-12T09:33:16.205Z,28.80
2023-04-12T09:35:50.111Z,28.70
2023-04-12T09:38:28.563Z,28.80
2023-04-12T09:41:20.759Z,28.80
2023-04-12T09:44:01.369Z,28.60
2023-04-12T09:46:37.145Z,28.60
2023-04-12T09:49:13.273Z,28.50
2023-04-12T09:51:50.040Z,28.30
2023-04-12T09:54:26.483Z,28.20
2023-04-12T09:57:00.204Z,28.40
2023-04-12T10:00:23.432Z,28.50
2023-04-12T10:02:59.976Z,28.50
2023-04-12T10:05:34.825Z,28.10
2023-04-12T10:08:11.741Z,28.10
2023-04-12T10:10:50.768Z,27.60
2023-04-12T10:13:28.828Z,27.30
2023-04-12T10:16:04.560Z,27.20
2023-04-12T10:18:41.325Z,27.30
2023-04-12T10:21:16.628Z,27.10
2023-04-12T10:23:50.497Z,27.00
2023-04-12T10:26:29.350Z,26.80
2023-04-12T10:29:28.103Z,26.50
2023-04-12T10:32:23.216Z,26.40
2023-04-12T10:35:02.068Z,26.50
2023-04-12T10:38:07.834Z,26.50
2023-04-12T10:40:43.496Z,26.40
2023-04-12T10:43:35.083Z,26.50
2023-04-12T10:46:10.115Z,26.30
2023-04-12T10:48:58.240Z,26.30
2023-04-12T10:51:34.669Z,26.30
2023-04-12T10:54:39.719Z,26.40
2023-04-12T10:57:58.206Z,26.40
2023-04-12T11:01:11.254Z,26.20
2023-04-12T11:04:17.392Z,26.20
2023-04-12T11:07:26.228Z,26.00
2023-04-12T11:10:24.410Z,25.90
2023-04-12T11:13:02.811Z,25.90
2023-04-12T11:15:40.866Z,26.10
2023-04-12T11:18:24.391Z,26.10
2023-04-12T11:20:58.518Z,26.20
2023-04-12T11:23:35.203Z,26.10
2023-04-12T11:26:12.320Z,25.90
2023-04-12T11:28:47.496Z,25.90
2023-04-12T11:31:35.638Z,25.80
2023-04-12T11:34:12.084Z,25.70
2023-04-12T11:36:58.586Z,25.70
2023-04-12T11:39:33.357Z,25.70
2023-04-12T11:42:09.906Z,25.80
2023-04-12T11:44:57.712Z,25.70
2023-04-12T11:47:38.042Z,25.70
2023-04-12T11:50:15.846Z,25.40
2023-04-12T11:52:49.897Z,25.40
2023-04-12T11:55:25.477Z,25.30
2023-04-12T11:58:07.011Z,25.20
2023-04-12T12:00:41.136Z,25.10
2023-04-12T12:03:18.685Z,25.00
2023-04-12T12:05:53.737Z,24.90
2023-04-12T12:08:29.742Z,24.90
2023-04-12T12:11:07.984Z,25.00
2023-04-12T12:14:15.485Z,24.90
2023-04-12T12:16:58.623Z,25.00
2023-04-12T12:19:44.716Z,24.70
2023-04-12T12:22:27.085Z,24.70
2023-04-12T12:25:13.147Z,24.40
2023-04-12T12:27:50.175Z,24.40
2023-04-12T12:30:25.451Z,24.30
2023-04-12T12:33:01.712Z,24.30
2023-04-12T12:35:40.641Z,24.40
2023-04-12T12:38:16.980Z,24.70
2023-04-12T12:40:56.952Z,24.70
2023-04-12T12:43:40.987Z,24.50
2023-04-12T12:46:15.012Z,24.40
2023-04-12T12:48:51.940Z,24.30
2023-04-12T12:51:28.414Z,24.20
2023-04-12T12:54:03.322Z,24.10
2023-04-12T12:56:37.457Z,24.20
2023-04-12T12:59:15.056Z,24.20
2023-04-12T13:01:52.088Z,24.00
2023-04-12T13:04:26.016Z,24.00
2023-04-12T13:07:04.954Z,24.00
2023-04-12T13:09:38.979Z,24.00
2023-04-12T13:12:13.709Z,24.10
2023-04-12T13:14:47.937Z,24.20
2023-04-12T13:17:35.917Z,24.20
2023-04-12T13:20:26.191Z,24.10
2023-04-12T13:23:06.775Z,24.20
2023-04-12T13:25:44.389Z,24.20
2023-04-12T13:28:21.539Z,24.20
2023-04-12T13:31:05.366Z,24.10
2023-04-12T13:33:39.808Z,23.90
2023-04-12T13:36:14.609Z,23.90
2023-04-12T13:38:55.743Z,23.90
2023-04-12T13:41:33.087Z,23.90
2023-04-12T13:44:18.847Z,23.80
2023-04-12T13:46:53.089Z,23.60
2023-04-12T13:49:32.674Z,23.60
2023-04-12T13:52:10.882Z,23.50
2023-04-12T13:54:51.126Z,23.50
2023-04-12T13:57:25.454Z,23.60
2023-04-12T13:59:58.884Z,23.70
2023-04-12T14:02:37.529Z,23.70
2023-04-12T14:05:14.178Z,23.80
2023-04-12T14:07:49.481Z,23.90
2023-04-12T14:10:31.115Z,23.90
2023-04-12T14:13:18.394Z,23.80
2023-04-12T14:16:01.480Z,23.90
2023-04-12T14:18:41.371Z,24.10
2023-04-12T14:21:18.509Z,24.10
2023-04-12T14:23:53.709Z,23.90
2023-04-12T14:26:29.867Z,23.90
2023-04-12T14:29:04.344Z,24.10
2023-04-12T14:34:27.904Z,23.90
2023-04-12T14:37:01.777Z,24.00
2023-04-12T14:39:42.220Z,24.00
2023-04-12T14:42:22.676Z,23.80
2023-04-12T14:45:00.087Z,23.80
2023-04-12T14:47:39.221Z,24.10
2023-04-12T14:50:13.546Z,24.00
2023-04-12T14:52:57.964Z,23.80
2023-04-12T14:55:35.147Z,23.90
2023-04-12T14:58:16.779Z,24.00
2023-04-12T15:00:51.533Z,24.20
2023-04-12T15:03:28.024Z,24.00
2023-04-12T15:06:04.781Z,23.90
2023-04-12T15:08:45.280Z,23.90
2023-04-12T15:11:23.538Z,23.70
2023-04-12T15:14:02.016Z,23.70
2023-04-12T15:16:37.926Z,23.80
2023-04-12T15:19:16.368Z,24.00
2023-04-12T15:21:55.165Z,24.10
2023-04-12T15:24:31.744Z,24.10
2023-04-12T15:27:08.728Z,24.10
2023-04-12T15:29:57.946Z,24.20
2023-04-12T15:32:43.119Z,24.20
2023-04-12T15:35:26.630Z,24.10
2023-04-12T15:38:02.350Z,23.90
2023-04-12T15:40:36.654Z,23.80
2023-04-12T15:43:10.888Z,23.80
2023-04-12T15:45:57.608Z,23.90
2023-04-12T15:48:31.966Z,23.70
2023-04-12T15:51:07.394Z,23.50
2023-04-12T15:53:44.105Z,23.50
2023-04-12T15:56:25.830Z,23.40
2023-04-12T15:59:00.523Z,23.40
2023-04-12T16:01:39.582Z,23.20
2023-04-12T16:04:15.334Z,23.20
2023-04-12T16:06:52.580Z,23.20
2023-04-12T16:09:27.253Z,23.10
2023-04-12T16:12:01.794Z,23.20
2023-04-12T16:14:36.048Z,23.00
2023-04-12T16:17:12.051Z,23.10
2023-04-12T16:19:45.949Z,23.10
2023-04-12T16:22:19.470Z,23.00
2023-04-12T16:24:56.503Z,22.80
2023-04-12T16:27:31.090Z,22.80
2023-04-12T16:30:05.503Z,22.50
2023-04-12T16:32:40.777Z,22.50
2023-04-12T16:35:15.113Z,22.40
2023-04-12T16:37:49.326Z,22.20
2023-04-12T16:40:24.088Z,22.00
2023-04-12T16:42:58.658Z,21.90
2023-04-12T16:45:32.716Z,21.70
2023-04-12T16:48:10.203Z,21.70
2023-04-12T16:50:46.389Z,21.50
2023-04-12T16:53:20.532Z,21.70
2023-04-12T16:55:58.062Z,21.70
2023-04-12T16:58:32.253Z,21.60
2023-04-12T17:01:05.599Z,21.10
2023-04-12T17:03:41.170Z,21.20
2023-04-12T17:06:17.255Z,21.00
2023-04-12T17:08:51.336Z,21.10
2023-04-12T17:11:25.620Z,21.20
2023-04-12T17:13:59.840Z,21.10
2023-04-12T17:16:34.041Z,21.10
2023-04-12T17:19:12.222Z,21.00
2023-04-12T17:21:49.432Z,20.90
2023-04-12T17:24:22.964Z,21.00
2023-04-12T17:26:57.742Z,20.80
2023-04-12T17:29:31.775Z,20.70
2023-04-12T17:32:06.187Z,20.60
2023-04-12T17:34:43.515Z,20.60
2023-04-12T17:37:20.493Z,20.60
2023-04-12T17:39:54.219Z,20.80
2023-04-12T17:42:27.970Z,20.90
2023-04-12T17:45:02.685Z,21.10
2023-04-12T17:47:36.279Z,21.00
2023-04-12T17:50:15.733Z,20.80
2023-04-12T17:52:49.378Z,20.80
2023-04-12T17:55:24.892Z,21.00
2023-04-12T17:57:58.506Z,20.80
2023-04-12T18:00:32.353Z,20.70
2023-04-12T18:03:05.622Z,20.70
2023-04-12T18:05:41.328Z,20.70
2023-04-12T18:08:16.404Z,20.70
2023-04-12T18:10:50.746Z,20.80
2023-04-12T18:13:24.377Z,21.10
2023-04-12T18:15:57.864Z,20.70
2023-04-12T18:18:34.245Z,20.70
2023-04-12T18:21:10.989Z,21.10
2023-04-12T18:23:44.368Z,21.10
2023-04-12T18:26:17.771Z,21.20
2023-04-12T18:28:51.080Z,21.20
2023-04-12T18:31:24.539Z,21.00
2023-04-12T18:33:58.090Z,21.20
2023-04-12T18:36:34.037Z,21.10
2023-04-12T18:39:08.184Z,20.90
2023-04-12T18:41:46.772Z,20.60
2023-04-12T18:44:21.582Z,20.30
2023-04-12T18:46:55.603Z,20.20
2023-04-12T18:49:29.227Z,20.30
2023-04-12T18:52:05.071Z,20.50
2023-04-12T18:54:38.576Z,20.30
2023-04-12T18:57:12.752Z,20.40
2023-04-12T18:59:49.351Z,20.50
2023-04-12T19:02:23.252Z,20.40
2023-04-12T19:05:00.366Z,20.50
2023-04-12T19:07:36.229Z,20.20
2023-04-12T19:10:11.664Z,20.30
2023-04-12T19:12:45.329Z,20.20
2023-04-12T19:15:20.582Z,20.30
2023-04-12T19:17:55.129Z,19.90
2023-04-12T19:20:29.249Z,19.70
2023-04-12T19:23:08.619Z,19.80
2023-04-12T19:25:45.397Z,19.90
2023-04-12T19:28:19.339Z,19.80
2023-04-12T19:30:53.382Z,20.00
2023-04-12T19:33:27.399Z,19.80
2023-04-12T19:36:01.254Z,19.80
2023-04-12T19:38:36.815Z,20.00
2023-04-12T19:41:13.643Z,20.20
2023-04-12T19:43:48.616Z,20.20
2023-04-12T19:46:25.046Z,20.10
2023-04-12T19:49:00.267Z,20.00
2023-04-12T19:51:35.131Z,19.90
2023-04-12T19:54:11.952Z,19.90
2023-04-12T19:56:45.649Z,19.80
2023-04-12T19:59:19.492Z,19.90
2023-04-12T20:01:54.295Z,19.80
2023-04-12T20:04:31.252Z,19.80
2023-04-12T20:07:06.093Z,19.70
2023-04-12T20:09:42.403Z,19.80
2023-04-12T20:12:16.683Z,20.00
2023-04-12T20:14:51.275Z,19.60
2023-04-12T20:17:25.170Z,19.60
2023-04-12T20:19:59.913Z,19.70
2023-04-12T20:22:33.868Z,19.60
2023-04-12T20:25:11.513Z,19.70
2023-04-12T20:27:50.237Z,19.60
2023-04-12T20:30:24.926Z,19.60
2023-04-12T20:32:59.164Z,19.70
2023-04-12T20:35:33.488Z,19.60
2023-04-12T20:38:07.283Z,19.50
2023-04-12T20:40:43.216Z,19.40
2023-04-12T20:43:18.146Z,19.40
2023-04-12T20:45:54.827Z,19.50
2023-04-12T20:48:28.860Z,19.70
2023-04-12T20:51:05.869Z,19.60
2023-04-12T20:53:39.408Z,19.30
2023-04-12T20:56:18.338Z,19.20
2023-04-12T20:58:54.411Z,19.00
2023-04-12T21:01:28.324Z,18.90
2023-04-12T21:04:07.605Z,19.10
2023-04-12T21:06:42.071Z,19.50
2023-04-12T21:09:16.232Z,19.50
2023-04-12T21:11:54.798Z,19.10
2023-04-12T21:14:34.185Z,18.70
2023-04-12T21:17:08.414Z,18.80
2023-04-12T21:19:43.775Z,18.80
2023-04-12T21:22:19.852Z,18.80
2023-04-12T21:24:53.618Z,19.00
2023-04-12T21:27:29.213Z,19.00
2023-04-12T21:30:02.914Z,19.10
2023-04-12T21:32:36.411Z,19.20
2023-04-12T21:35:12.309Z,19.10
2023-04-12T21:37:46.544Z,18.80
2023-04-12T21:40:20.772Z,18.60
2023-04-12T21:42:57.031Z,18.60
2023-04-12T21:45:31.537Z,18.50
2023-04-12T21:48:04.706Z,18.70
2023-04-12T21:50:39.872Z,18.90
2023-04-12T21:53:13.247Z,18.80
2023-04-12T21:55:47.072Z,18.90
2023-04-12T21:58:22.753Z,18.90
2023-04-12T22:00:59.857Z,18.80
2023-04-12T22:03:34.206Z,18.80
2023-04-12T22:06:08.411Z,18.50
2023-04-12T22:08:45.589Z,18.60
2023-04-12T22:11:18.749Z,18.80
2023-04-12T22:13:58.677Z,18.70
2023-04-12T22:16:34.187Z,18.90
2023-04-12T22:19:09.187Z,18.70
2023-04-12T22:21:43.270Z,18.50
2023-04-12T22:24:17.810Z,18.80
2023-04-12T22:26:51.948Z,18.70
2023-04-12T22:29:28.654Z,18.80
2023-04-12T22:32:03.096Z,19.00
2023-04-12T22:34:38.991Z,18.80
2023-04-12T22:37:13.790Z,18.90
2023-04-12T22:39:52.786Z,18.90
2023-04-12T22:42:28.126Z,19.00
2023-04-12T22:45:04.190Z,19.00
2023-04-12T22:47:40.497Z,18.90
2023-04-12T22:50:14.694Z,18.80
2023-04-12T22:52:51.373Z,18.80
2023-04-12T22:55:25.312Z,18.70
2023-04-12T22:58:02.325Z,18.50
2023-04-12T23:00:38.571Z,18.60
2023-04-12T23:03:13.092Z,18.60
2023-04-12T23:05:47.230Z,18.60
2023-04-12T23:08:21.992Z,18.60
2023-04-12T23:11:04.218Z,18.80
2023-04-12T23:13:38.859Z,18.90
2023-04-12T23:16:14.979Z,19.00
2023-04-12T23:18:49.723Z,19.00
2023-04-12T23:21:31.323Z,19.10
2023-04-12T23:24:14.027Z,19.30
2023-04-12T23:26:50.931Z,19.00
2023-04-12T23:29:29.085Z,19.00
2023-04-12T23:32:05.857Z,19.00
2023-04-12T23:34:47.661Z,18.90
2023-04-12T23:37:28.738Z,18.90
2023-04-12T23:40:08.523Z,19.20
2023-04-12T23:42:47.256Z,19.30
2023-04-12T23:45:21.889Z,19.20
2023-04-12T23:47:57.725Z,19.20
2023-04-12T23:50:40.750Z,18.80
2023-04-12T23:53:23.957Z,18.90
2023-04-12T23:55:59.905Z,18.90
2023-04-12T23:58:33.540Z,19.20
